Time;durP1;ratioP1;P1;durP2;ratioP2;P2;SDS_P1;SDS_P2;PMS_P1;PMS_P2;Temp;Humidity;BMP_temperature;BMP_pressure;BME280_temperature;BME280_humidity;BME280_pressure;Samples;Min_cycle;Max_cycle;Signal;HPM_P1;HPM_P2
2022/10/25 00:00:57;;;;;;;5.65;3.70;;;13.60;99.90;;;-141.84;86.14;17822.63;5012935;28;20230;-63
2022/10/25 00:03:26;;;;;;;4.75;3.58;;;13.70;99.90;;;-141.84;86.35;17859.19;5012983;28;20234;-62
2022/10/25 00:05:54;;;;;;;5.00;3.50;;;13.70;99.90;;;-141.84;86.43;17832.78;5012723;28;20223;-64
2022/10/25 00:08:22;;;;;;;3.95;3.20;;;13.60;99.90;;;-141.84;86.59;17806.38;5012692;28;20593;-62
2022/10/25 00:10:50;;;;;;;5.60;3.60;;;13.60;99.90;;;-141.84;86.46;17796.22;5012747;28;20637;-63
2022/10/25 00:13:18;;;;;;;8.68;3.70;;;13.60;99.90;;;-141.84;86.18;17834.81;5012437;28;20747;-63
2022/10/25 00:15:46;;;;;;;8.02;3.88;;;13.60;99.90;;;-141.84;86.41;17820.59;5012815;28;20276;-64
2022/10/25 00:18:14;;;;;;;3.55;3.25;;;13.60;99.90;;;-141.84;86.29;17794.19;5012574;28;20681;-63
2022/10/25 00:20:45;;;;;;;4.97;3.20;;;13.60;99.90;;;-141.84;86.44;17790.13;5012575;28;20566;-63
2022/10/25 00:23:13;;;;;;;4.25;3.20;;;13.60;99.90;;;-141.84;86.55;17790.13;5012786;28;20289;-63
2022/10/25 00:25:43;;;;;;;9.27;3.85;;;13.60;99.90;;;-141.84;86.66;17804.34;5012726;28;20225;-64
2022/10/25 00:28:11;;;;;;;5.10;3.47;;;13.60;99.90;;;-141.84;85.58;17798.25;5012412;28;20227;-63
2022/10/25 00:30:39;;;;;;;4.80;3.58;;;13.60;99.90;;;-141.84;85.88;17794.19;5012725;28;20245;-63
2022/10/25 00:33:07;;;;;;;7.00;3.45;;;13.50;99.90;;;-141.84;86.32;17773.88;5012652;28;20218;-63
2022/10/25 00:35:36;;;;;;;5.47;3.38;;;13.50;99.90;;;-141.84;86.78;17775.91;5012361;28;20226;-63
2022/10/25 00:38:05;;;;;;;4.25;3.15;;;13.40;99.90;;;-141.84;87.05;17729.19;5012013;28;20228;-63
2022/10/25 00:40:34;;;;;;;6.85;3.60;;;13.30;99.90;;;-141.84;86.85;17753.56;5012305;28;20713;-63
2022/10/25 00:43:02;;;;;;;7.22;3.53;;;13.30;99.90;;;-141.84;87.12;17753.56;5012397;28;20269;-61
2022/10/25 00:45:30;;;;;;;6.32;3.67;;;13.20;99.90;;;-141.84;87.37;17737.31;5012422;28;20222;-62
2022/10/25 00:48:04;;;;;;;5.20;3.35;;;13.20;99.90;;;-141.84;87.48;17725.13;5012185;28;20225;-61
2022/10/25 00:50:47;;;;;;;6.50;3.13;;;13.20;99.90;;;-141.84;87.82;17694.66;5012256;28;20229;-62
2022/10/25 00:53:22;;;;;;;5.78;3.40;;;13.20;99.90;;;-141.84;87.73;17700.75;5012376;28;20222;-62
2022/10/25 00:55:59;;;;;;;4.97;3.50;;;13.10;99.90;;;-141.84;87.88;17680.44;5012150;28;20226;-62
2022/10/25 00:58:33;;;;;;;4.70;3.45;;;13.10;99.90;;;-141.84;88.16;17680.44;5011934;28;20272;-62
2022/10/25 01:01:07;;;;;;;5.43;3.55;;;13.10;99.90;;;-141.84;88.36;17664.19;5011979;28;20225;-62
2022/10/25 01:03:39;;;;;;;4.13;3.50;;;13.00;99.90;;;-141.84;88.40;17698.72;5012097;28;20730;-63
2022/10/25 01:06:17;;;;;;;6.43;3.58;;;13.00;99.90;;;-141.84;88.40;17627.63;5011604;28;20230;-62
2022/10/25 01:08:49;;;;;;;5.07;3.38;;;13.00;99.90;;;-141.84;88.52;17631.69;5012092;28;20230;-62
2022/10/25 01:11:19;;;;;;;4.40;3.15;;;13.00;99.90;;;-141.84;88.55;17658.09;5012002;28;20234;-62
2022/10/25 01:13:49;;;;;;;6.05;3.45;;;13.00;99.90;;;-141.84;88.76;17627.63;5011949;28;20187;-62
2022/10/25 01:16:27;;;;;;;5.03;3.35;;;13.00;99.90;;;-141.84;88.86;17625.59;5011889;28;20219;-61
2022/10/25 01:19:16;;;;;;;3.97;2.85;;;12.90;99.90;;;-141.84;89.08;17635.75;5012046;28;20230;-62
2022/10/25 01:21:49;;;;;;;6.33;3.40;;;12.90;99.90;;;-141.84;88.98;17605.28;5011725;28;20701;-62
2022/10/25 01:24:57;;;;;;;6.72;3.38;;;12.90;99.90;;;-141.84;89.11;17587.00;5011884;28;20552;-61
2022/10/25 01:28:00;;;;;;;5.43;3.20;;;12.90;99.90;;;-141.84;89.16;17532.16;5011755;28;20245;-62
2022/10/25 01:31:11;;;;;;;4.53;3.40;;;12.80;99.90;;;-141.84;89.36;17522.00;5011741;28;20230;-61
2022/10/25 01:33:46;;;;;;;3.80;3.40;;;12.70;99.90;;;-141.84;89.93;17530.13;5012001;28;20273;-63
2022/10/25 01:36:26;;;;;;;5.50;3.27;;;12.70;99.90;;;-141.84;90.40;17519.97;5011627;28;20204;-62
2022/10/25 01:39:08;;;;;;;6.63;3.40;;;12.60;99.90;;;-141.84;90.82;17497.63;5011724;28;20244;-61
2022/10/25 01:41:49;;;;;;;5.60;3.55;;;12.60;99.90;;;-141.84;91.00;17501.69;5011339;28;20748;-62
2022/10/25 01:44:34;;;;;;;5.90;3.40;;;12.60;99.90;;;-141.84;91.10;17452.97;5011696;28;20226;-61
2022/10/25 01:47:11;;;;;;;6.63;3.60;;;12.60;99.90;;;-141.84;91.41;17455.00;5012793;28;20226;-62
2022/10/25 01:49:47;;;;;;;6.68;3.83;;;12.60;99.90;;;-141.84;91.41;17422.50;5011208;28;20257;-62
2022/10/25 01:52:18;;;;;;;6.68;4.07;;;12.60;99.90;;;-141.84;91.33;17408.28;5011561;28;20230;-62
2022/10/25 01:54:46;;;;;;;4.80;3.78;;;12.60;99.90;;;-141.84;91.10;17414.38;5011568;28;20310;-62
2022/10/25 01:57:43;;;;;;;5.70;3.80;;;12.50;99.90;;;-141.84;91.25;17392.03;5011516;28;20218;-61
2022/10/25 02:00:16;;;;;;;6.82;4.03;;;12.50;99.90;;;-141.84;91.42;17379.84;5011846;28;20317;-62
2022/10/25 02:03:13;;;;;;;5.43;3.90;;;12.50;99.90;;;-141.84;91.76;17355.47;5011839;28;20218;-62
2022/10/25 02:06:00;;;;;;;4.00;3.58;;;12.50;99.90;;;-141.84;91.86;17308.75;5014451;28;20230;-62
2022/10/25 02:08:39;;;;;;;7.63;4.00;;;12.40;99.90;;;-141.84;92.10;17335.16;5015626;28;20222;-61
2022/10/25 02:11:21;;;;;;;6.70;4.07;;;12.30;99.90;;;-141.84;92.41;17286.41;5014891;28;20237;-62
2022/10/25 02:14:02;;;;;;;4.97;3.90;;;12.40;99.90;;;-141.84;92.26;17274.22;5015046;28;20253;-62
2022/10/25 02:16:38;;;;;;;6.18;3.88;;;12.30;99.90;;;-141.84;92.59;17227.50;5015319;28;20229;-62
2022/10/25 02:19:13;;;;;;;5.57;3.67;;;12.30;99.90;;;-141.84;92.88;17217.34;5014710;28;20669;-60
2022/10/25 02:21:45;;;;;;;5.00;3.80;;;12.20;99.90;;;-141.84;93.08;17190.94;5014670;28;20225;-62
2022/10/25 02:24:18;;;;;;;5.60;4.30;;;12.20;99.90;;;-141.84;93.10;17225.47;5014839;28;20218;-62
2022/10/25 02:26:49;;;;;;;5.27;4.10;;;12.20;99.90;;;-141.84;93.05;17192.97;5014725;28;20226;-63
2022/10/25 02:29:21;;;;;;;6.93;4.20;;;12.20;99.90;;;-141.84;93.10;17168.59;5014686;28;20261;-62
2022/10/25 02:31:49;;;;;;;7.13;4.37;;;12.20;99.90;;;-141.84;92.80;17184.84;5014821;28;20269;-61
2022/10/25 02:34:19;;;;;;;7.87;4.90;;;12.20;99.90;;;-141.84;92.92;17207.19;5014614;28;20648;-61
2022/10/25 02:36:48;;;;;;;5.60;4.00;;;12.20;99.90;;;-141.84;92.88;17150.31;5014627;28;20218;-62
2022/10/25 02:39:18;;;;;;;6.73;4.73;;;12.30;99.90;;;-141.84;92.83;17182.81;5014548;28;20199;-61
2022/10/25 02:41:46;;;;;;;5.73;4.80;;;12.30;99.90;;;-141.84;92.43;17160.47;5014288;28;20732;-61
2022/10/25 02:44:14;;;;;;;8.00;4.93;;;12.30;99.90;;;-141.84;92.44;17201.09;5014586;28;20724;-61
2022/10/25 02:46:42;;;;;;;6.93;4.73;;;12.40;99.90;;;-141.84;92.19;17125.97;5014510;28;20219;-61
2022/10/25 02:49:10;;;;;;;12.20;7.40;;;12.40;99.90;;;-141.84;92.04;17170.63;5014099;28;20226;-62
2022/10/25 02:51:40;;;;;;;6.27;5.13;;;12.40;99.90;;;-141.84;91.94;17136.13;5014166;28;20218;-63
2022/10/25 02:54:08;;;;;;;6.10;4.57;;;12.40;99.90;;;-141.84;92.17;17138.16;5014277;28;20313;-62
2022/10/25 02:56:37;;;;;;;6.27;4.90;;;12.30;99.90;;;-141.84;92.33;17113.78;5014290;28;20226;-62
2022/10/25 02:59:05;;;;;;;5.50;4.75;;;12.30;99.90;;;-141.84;92.49;17087.38;5014401;28;20306;-61
2022/10/25 03:01:33;;;;;;;5.85;4.72;;;12.20;99.90;;;-141.84;92.67;17105.66;5014265;28;20223;-63
2022/10/25 03:04:01;;;;;;;7.57;4.35;;;12.20;99.90;;;-141.84;92.95;17046.75;5014127;28;20183;-61
2022/10/25 03:06:29;;;;;;;6.68;4.60;;;12.10;99.90;;;-141.84;93.15;17056.91;5013990;28;20222;-63
2022/10/25 03:08:59;;;;;;;6.63;4.60;;;12.00;99.90;;;-141.84;93.21;17054.88;5014062;28;20277;-62
2022/10/25 03:11:27;;;;;;;8.17;5.77;;;12.00;99.90;;;-141.84;93.26;17042.69;5013533;28;20238;-62
2022/10/25 03:13:55;;;;;;;7.60;5.07;;;12.00;99.90;;;-141.84;93.47;17034.56;5013985;28;20218;-62
2022/10/25 03:16:23;;;;;;;8.03;5.50;;;11.90;99.90;;;-141.84;93.76;17006.13;5012869;28;20218;-61
2022/10/25 03:18:51;;;;;;;11.93;6.27;;;11.90;99.90;;;-141.84;93.81;16993.94;5013861;28;20219;-62
2022/10/25 03:21:19;;;;;;;6.67;5.40;;;11.90;99.90;;;-141.84;94.20;16953.34;5013696;28;20243;-61
2022/10/25 03:23:47;;;;;;;7.13;5.60;;;11.80;99.90;;;-141.84;94.45;16928.97;5013862;28;20219;-62
2022/10/25 03:26:16;;;;;;;6.50;5.13;;;11.70;99.90;;;-141.84;94.69;16888.34;5014030;28;20222;-61
2022/10/25 03:28:44;;;;;;;7.43;6.13;;;11.70;99.90;;;-141.84;94.82;16918.81;5013444;28;20207;-62
2022/10/25 03:31:15;;;;;;;8.73;5.60;;;11.80;99.90;;;-141.84;95.05;16874.13;5013615;28;20234;-62
2022/10/25 03:33:43;;;;;;;6.33;4.63;;;11.80;99.90;;;-141.84;95.15;16855.84;5013364;28;20233;-62
2022/10/25 03:36:11;;;;;;;8.03;5.80;;;11.80;99.90;;;-141.84;95.27;16821.31;5013513;28;20272;-62
2022/10/25 03:38:40;;;;;;;7.80;5.03;;;11.70;99.90;;;-141.84;95.45;16819.28;5013256;28;20647;-62
2022/10/25 03:41:08;;;;;;;7.03;4.87;;;11.70;99.90;;;-141.84;95.42;16809.13;5013629;28;20638;-62
2022/10/25 03:43:37;;;;;;;4.87;4.13;;;11.70;99.90;;;-141.84;95.76;16813.19;5013130;28;20237;-61
2022/10/25 03:46:06;;;;;;;7.03;4.70;;;11.70;99.90;;;-141.84;95.96;16782.75;5013492;28;20229;-61
2022/10/25 03:48:34;;;;;;;7.70;4.80;;;11.70;99.90;;;-141.84;95.98;16734.00;5013485;28;20226;-62
2022/10/25 03:51:02;;;;;;;7.63;4.50;;;11.70;99.90;;;-141.84;96.02;16695.41;5013278;28;20253;-62
2022/10/25 03:53:30;;;;;;;5.67;4.37;;;11.60;99.90;;;-141.84;96.19;16695.41;5013079;28;20198;-62
2022/10/25 03:55:58;;;;;;;6.38;4.88;;;11.60;99.90;;;-141.84;96.31;16709.63;5012792;28;20694;-61
2022/10/25 03:58:26;;;;;;;8.53;4.33;;;11.70;99.90;;;-141.84;96.28;16673.09;5013024;28;20222;-62
2022/10/25 04:00:55;;;;;;;5.27;4.67;;;11.60;99.90;;;-141.84;96.38;16671.06;5012994;28;20230;-61
2022/10/25 04:03:23;;;;;;;10.97;4.83;;;11.60;99.90;;;-141.84;96.55;16648.72;5013111;28;20240;-62
2022/10/25 04:05:51;;;;;;;7.47;4.83;;;11.60;99.90;;;-141.84;96.71;16620.28;5013100;28;20233;-63
2022/10/25 04:08:19;;;;;;;5.07;4.37;;;11.60;99.90;;;-141.84;96.70;16630.44;5012841;28;20219;-61
2022/10/25 04:10:47;;;;;;;12.10;4.63;;;11.60;99.90;;;-141.84;96.81;16610.13;5012519;28;20230;-63
2022/10/25 04:13:15;;;;;;;5.18;4.53;;;11.60;99.90;;;-141.84;97.04;16606.06;5013038;28;20218;-62
2022/10/25 04:15:43;;;;;;;5.83;4.47;;;11.60;99.90;;;-141.84;97.43;16579.66;5013100;28;20215;-62
2022/10/25 04:18:13;;;;;;;7.82;4.60;;;11.60;99.90;;;-141.84;97.20;16593.88;5013409;28;20296;-61
2022/10/25 04:20:41;;;;;;;6.77;4.83;;;11.60;99.90;;;-141.84;97.22;16569.50;5012886;28;20273;-61
2022/10/25 04:23:09;;;;;;;6.07;4.90;;;11.60;99.90;;;-141.84;97.18;16575.59;5012670;28;20218;-61
2022/10/25 04:25:37;;;;;;;8.55;4.97;;;11.60;99.90;;;-141.84;97.25;16585.75;5012654;28;20226;-62
2022/10/25 04:28:05;;;;;;;6.77;4.73;;;11.60;99.90;;;-141.84;97.03;16573.56;5011842;28;20219;-61
2022/10/25 04:30:33;;;;;;;8.25;4.90;;;11.60;99.90;;;-141.84;97.08;16541.09;5012622;28;20276;-62
2022/10/25 04:33:05;;;;;;;6.07;4.85;;;11.60;99.90;;;-141.84;97.08;16575.59;5012661;28;20575;-62
2022/10/25 04:35:35;;;;;;;6.20;5.10;;;11.60;99.90;;;-141.84;97.08;16543.13;5012550;28;20615;-61
2022/10/25 04:38:03;;;;;;;7.07;5.27;;;11.60;99.90;;;-141.84;96.97;16535.00;5012468;28;20228;-62
2022/10/25 04:40:31;;;;;;;5.93;5.10;;;11.70;99.90;;;-141.84;96.95;16520.78;5012140;28;20226;-61
2022/10/25 04:43:01;;;;;;;6.20;4.90;;;11.60;99.90;;;-141.84;96.69;16555.31;5012241;28;20202;-63
2022/10/25 04:45:29;;;;;;;7.37;5.30;;;11.70;99.90;;;-141.84;96.53;16524.84;5012448;28;20219;-61
2022/10/25 04:47:57;;;;;;;6.20;4.77;;;11.70;99.90;;;-141.84;96.24;16516.72;5012241;28;20223;-61
2022/10/25 04:50:25;;;;;;;5.50;4.90;;;11.60;99.90;;;-141.84;96.13;16502.50;5012270;28;20233;-62
2022/10/25 04:52:55;;;;;;;6.77;4.60;;;11.60;99.90;;;-141.84;96.28;16502.50;5011424;28;20235;-62
2022/10/25 04:55:23;;;;;;;5.70;4.97;;;11.50;99.90;;;-141.84;96.26;16498.44;5011429;28;20269;-62
2022/10/25 04:57:52;;;;;;;5.13;4.30;;;11.50;99.90;;;-141.84;96.08;16496.41;5012212;28;20218;-62
2022/10/25 05:00:20;;;;;;;5.17;4.57;;;11.60;99.90;;;-141.84;96.15;16524.84;5012127;28;20230;-64
2022/10/25 05:02:48;;;;;;;5.03;4.50;;;11.50;99.90;;;-141.84;96.18;16490.31;5012330;28;20218;-63
2022/10/25 05:05:16;;;;;;;7.47;4.80;;;11.50;99.90;;;-141.84;96.23;16459.88;5012386;28;20215;-61
2022/10/25 05:07:44;;;;;;;5.40;4.50;;;11.50;99.90;;;-141.84;96.09;16472.03;5010733;28;20273;-62
2022/10/25 05:10:14;;;;;;;6.00;4.97;;;11.50;99.90;;;-141.84;96.29;16441.59;5011764;28;20681;-62
2022/10/25 05:12:42;;;;;;;5.73;4.60;;;11.50;99.90;;;-141.84;96.26;16484.22;5011449;28;20234;-63
2022/10/25 05:15:11;;;;;;;8.17;4.60;;;11.50;99.90;;;-141.84;96.23;16482.19;5012238;28;20305;-63
2022/10/25 05:17:39;;;;;;;7.20;5.57;;;11.50;99.90;;;-141.84;96.41;16425.34;5012746;28;20245;-64
2022/10/25 05:20:08;;;;;;;5.50;5.00;;;11.50;99.90;;;-141.84;95.92;16435.50;5011206;28;20725;-62
2022/10/25 05:22:36;;;;;;;6.97;5.30;;;11.60;99.90;;;-141.84;95.77;16463.91;5011359;28;20234;-61
2022/10/25 05:25:05;;;;;;;5.73;4.90;;;11.60;99.90;;;-141.84;95.51;16461.91;5010772;28;20273;-61
2022/10/25 05:27:38;;;;;;;9.77;5.07;;;11.70;99.90;;;-141.84;94.88;16453.78;5011990;28;20222;-62
2022/10/25 05:30:07;;;;;;;7.43;4.87;;;11.70;99.90;;;-141.84;94.09;16494.38;5011342;28;20226;-61
2022/10/25 05:32:36;;;;;;;6.10;5.13;;;11.70;99.90;;;-141.84;93.25;16518.75;5010543;28;20207;-63
2022/10/25 05:35:05;;;;;;;5.80;4.60;;;11.80;99.90;;;-141.84;92.60;16547.19;5011409;28;20230;-60
2022/10/25 05:37:33;;;;;;;6.97;4.80;;;11.80;99.90;;;-141.84;92.69;16553.28;5011220;28;20223;-62
2022/10/25 05:40:01;;;;;;;8.27;6.07;;;11.80;99.90;;;-141.84;92.45;16557.34;5011914;28;20222;-62
2022/10/25 05:42:29;;;;;;;7.73;5.37;;;11.90;99.90;;;-141.84;91.67;16577.63;5015296;28;20214;-63
2022/10/25 05:44:58;;;;;;;5.20;4.13;;;11.90;99.90;;;-141.84;91.53;16573.56;5015616;28;20215;-63
2022/10/25 05:47:26;;;;;;;6.43;4.30;;;11.90;99.90;;;-141.84;89.61;16634.50;5015478;28;20718;-62
2022/10/25 05:49:54;;;;;;;7.20;4.80;;;12.00;99.90;;;-141.84;89.50;16599.97;5015527;28;20377;-62
2022/10/25 05:52:22;;;;;;;6.30;4.37;;;12.00;99.90;;;-141.84;90.25;16616.22;5014760;28;20285;-63
2022/10/25 05:54:50;;;;;;;6.53;4.10;;;12.00;99.90;;;-141.84;90.57;16604.03;5015282;28;20226;-63
2022/10/25 05:57:19;;;;;;;5.37;4.07;;;12.00;99.90;;;-141.84;90.86;16595.91;5014227;28;20622;-61
2022/10/25 05:59:47;;;;;;;6.30;3.80;;;12.00;99.90;;;-141.84;90.67;16599.97;5015031;28;20229;-61
2022/10/25 06:02:16;;;;;;;5.10;3.83;;;11.90;99.90;;;-141.84;90.82;16583.72;5015023;28;20225;-60
2022/10/25 06:04:44;;;;;;;6.40;4.20;;;11.90;99.90;;;-141.84;90.93;16606.06;5014882;28;20227;-62
2022/10/25 06:07:18;;;;;;;4.73;4.00;;;11.90;99.90;;;-141.84;90.82;16604.03;5014870;28;20697;-61
2022/10/25 06:09:46;;;;;;;6.33;4.10;;;11.90;99.90;;;-141.84;90.10;16612.16;5015188;28;20222;-61
2022/10/25 06:12:14;;;;;;;7.03;4.10;;;12.00;99.90;;;-141.84;88.63;16654.81;5014766;28;20237;-60
2022/10/25 06:14:42;;;;;;;7.70;4.22;;;12.00;99.90;;;-141.84;86.94;16709.63;5014280;28;20310;-61
2022/10/25 06:17:11;;;;;;;6.10;3.80;;;12.10;99.90;;;-141.84;86.39;16782.75;5014978;28;20223;-60
2022/10/25 06:19:41;;;;;;;8.67;3.93;;;12.20;99.90;;;-141.84;84.87;16823.34;5015091;28;20223;-61
2022/10/25 06:22:09;;;;;;;4.68;3.53;;;12.30;99.90;;;-141.84;83.72;16878.19;5014688;28;20187;-60
2022/10/25 06:24:37;;;;;;;4.93;3.38;;;12.40;99.90;;;-141.84;82.98;16933.03;5014775;28;20222;-61
2022/10/25 06:27:05;;;;;;;5.47;3.40;;;12.60;99.90;;;-141.84;82.81;16989.88;5014548;28;20234;-61
2022/10/25 06:29:33;;;;;;;6.50;4.13;;;12.60;99.90;;;-141.84;80.70;17081.28;5014132;28;20575;-61
2022/10/25 06:32:01;;;;;;;4.10;3.10;;;12.70;99.90;;;-141.84;81.27;17038.63;5014316;28;20234;-61
2022/10/25 06:34:29;;;;;;;5.32;3.20;;;12.80;99.90;;;-141.84;81.13;17052.84;5014729;28;20215;-61
2022/10/25 06:36:58;;;;;;;7.97;3.63;;;12.90;99.90;;;-141.84;81.44;17056.91;5014291;28;20227;-60
2022/10/25 06:39:26;;;;;;;5.10;3.00;;;12.90;99.90;;;-141.84;79.20;17156.41;5014548;28;20222;-60
2022/10/25 06:41:54;;;;;;;6.40;2.80;;;13.10;99.90;;;-141.84;78.80;17201.09;5014520;28;20627;-61
2022/10/25 06:44:22;;;;;;;3.45;2.85;;;13.20;99.90;;;-141.84;78.78;17235.63;5014494;28;20223;-61
2022/10/25 06:46:50;;;;;;;5.93;3.22;;;13.40;99.90;;;-141.84;76.93;17375.78;5013455;28;20580;-60
2022/10/25 06:49:38;;;;;;;4.88;2.92;;;13.50;99.90;;;-141.84;76.07;17461.09;5014304;28;20230;-60
2022/10/25 06:52:08;;;;;;;3.53;2.70;;;13.70;99.90;;;-141.84;76.19;17404.22;5014001;28;20621;-61
2022/10/25 06:54:36;;;;;;;4.97;2.65;;;13.80;99.90;;;-141.84;76.63;17465.13;5013839;28;20219;-61
2022/10/25 06:57:04;;;;;;;6.75;2.50;;;13.90;99.90;;;-141.84;76.65;17475.28;5013778;28;20637;-61
2022/10/25 06:59:32;;;;;;;5.55;2.72;;;14.00;99.90;;;-141.84;75.18;17538.25;5014069;28;20218;-61
2022/10/25 07:02:00;;;;;;;5.80;2.30;;;14.00;99.90;;;-141.84;75.40;17548.41;5014335;28;20226;-61
2022/10/25 07:04:31;;;;;;;6.65;2.80;;;14.10;99.90;;;-141.84;75.51;17578.88;5012519;28;20317;-61
2022/10/25 07:06:59;;;;;;;8.48;4.00;;;14.10;99.90;;;-141.84;74.34;17656.06;5013464;28;20690;-62
2022/10/25 07:09:29;;;;;;;4.13;2.35;;;14.20;99.90;;;-141.84;73.74;17686.53;5013690;28;20230;-62
2022/10/25 07:11:57;;;;;;;5.28;2.90;;;14.30;99.90;;;-141.84;73.54;17708.88;5013618;28;20234;-61
2022/10/25 07:14:25;;;;;;;3.97;2.58;;;14.40;99.90;;;-141.84;73.56;17737.31;5014058;28;20219;-60
2022/10/25 07:16:53;;;;;;;5.32;2.47;;;14.30;99.90;;;-141.84;73.54;17767.78;5013820;28;20222;-60
2022/10/25 07:19:22;;;;;;;3.13;2.50;;;14.30;99.90;;;-141.84;73.62;17769.81;5013145;28;20214;-61
2022/10/25 07:21:51;;;;;;;6.95;2.50;;;14.30;99.90;;;-141.84;73.45;17804.34;5012475;28;20218;-60
2022/10/25 07:24:19;;;;;;;5.90;2.63;;;14.30;99.90;;;-141.84;73.39;17822.63;5013612;28;20309;-61
2022/10/25 07:26:49;;;;;;;6.03;2.80;;;14.30;99.90;;;-141.84;72.73;17887.63;5013681;28;20223;-61
2022/10/25 07:29:17;;;;;;;3.97;2.20;;;14.50;99.90;;;-141.84;72.37;17887.63;5013561;28;20253;-62
2022/10/25 07:31:45;;;;;;;5.22;2.42;;;14.50;99.90;;;-141.84;72.67;17895.75;5013415;28;20455;-60
2022/10/25 07:34:15;;;;;;;5.35;2.47;;;14.60;99.90;;;-141.84;71.73;17966.88;5013532;28;20222;-61
2022/10/25 07:36:44;;;;;;;5.55;2.10;;;14.70;99.90;;;-141.84;70.71;18042.03;5013302;28;20226;-62
2022/10/25 07:39:12;;;;;;;3.42;2.00;;;14.80;99.90;;;-141.84;69.64;18092.81;5013361;28;20223;-60
2022/10/25 07:41:40;;;;;;;3.75;2.20;;;15.00;99.90;;;-141.84;69.71;18145.63;5013157;28;20305;-61
2022/10/25 07:44:10;;;;;;;5.13;2.20;;;15.10;99.90;;;-141.84;68.96;18174.06;5013246;28;20721;-60
2022/10/25 07:46:44;;;;;;;3.42;1.90;;;15.20;99.90;;;-141.84;67.89;18310.19;5013423;28;20245;-61
2022/10/25 07:49:12;;;;;;;5.05;2.10;;;15.40;99.90;;;-141.84;67.96;18312.22;5013404;28;20230;-62
2022/10/25 07:51:40;;;;;;;3.63;1.75;;;15.50;99.90;;;-141.84;67.63;18356.91;5013165;28;20712;-61
2022/10/25 07:54:09;;;;;;;6.85;2.42;;;15.60;99.90;;;-141.84;66.91;18444.28;5012781;28;20653;-60
2022/10/25 07:56:37;;;;;;;3.10;1.80;;;15.70;99.90;;;-141.84;66.77;18495.06;5012914;28;20198;-61
2022/10/25 07:59:11;;;;;;;4.53;2.10;;;15.80;99.90;;;-141.84;67.10;18464.59;5012814;28;20233;-61
2022/10/25 08:01:41;;;;;;;3.25;2.08;;;15.80;99.90;;;-141.84;66.36;18515.38;5012486;28;20224;-61
2022/10/25 08:04:10;;;;;;;4.68;2.30;;;15.80;99.90;;;-141.84;66.98;18531.63;5012805;28;20222;-60
2022/10/25 08:06:38;;;;;;;3.20;1.80;;;15.80;99.90;;;-141.84;67.24;18525.53;5012897;28;20223;-61
2022/10/25 08:09:05;;;;;;;6.40;2.10;;;15.60;99.90;;;-141.84;67.30;18533.66;5012834;28;20246;-61
2022/10/25 08:11:47;;;;;;;3.85;2.28;;;15.70;99.90;;;-141.84;66.23;18602.75;5012502;28;20225;-60
2022/10/25 08:14:15;;;;;;;4.28;2.15;;;15.80;99.90;;;-141.84;64.60;18730.75;5012728;28;20281;-60
2022/10/25 08:16:44;;;;;;;3.67;2.05;;;16.00;99.90;;;-141.84;64.27;18779.50;5012971;28;20781;-62
2022/10/25 08:19:12;;;;;;;4.13;1.65;;;16.20;99.90;;;-141.84;63.84;18860.78;5012642;28;20223;-62
2022/10/25 08:21:40;;;;;;;4.90;2.17;;;16.30;99.90;;;-141.84;64.50;18842.50;5012585;28;20702;-62
2022/10/25 08:24:09;;;;;;;3.95;1.83;;;16.30;99.90;;;-141.84;64.51;18834.38;5012473;28;20561;-61
2022/10/25 08:26:37;;;;;;;4.65;1.70;;;16.30;99.90;;;-141.84;64.36;18895.31;5012603;28;20246;-60
2022/10/25 08:29:05;;;;;;;2.72;1.88;;;16.40;99.90;;;-141.84;63.40;18946.13;5012640;28;20221;-61
2022/10/25 08:31:33;;;;;;;2.80;1.83;;;16.60;99.90;;;-141.84;62.17;19029.44;5012579;28;20230;-61
2022/10/25 08:34:03;;;;;;;3.95;2.03;;;16.70;99.90;;;-141.84;61.31;19120.88;5012074;28;20772;-61
2022/10/25 08:36:31;;;;;;;4.20;1.50;;;17.00;99.90;;;-141.84;60.70;19185.88;5012487;28;20230;-60
2022/10/25 08:39:00;;;;;;;4.85;1.50;;;17.20;99.90;;;-141.84;60.59;19246.84;5012199;28;20269;-60
2022/10/25 08:41:43;;;;;;;3.80;1.48;;;17.30;99.90;;;-141.84;60.82;19271.25;5011640;28;20249;-60
2022/10/25 08:44:28;;;;;;;2.95;1.40;;;17.20;99.90;;;-141.84;61.48;19250.91;5012225;28;20223;-61
2022/10/25 08:47:03;;;;;;;3.92;1.60;;;17.20;99.90;;;-141.84;61.95;19240.75;5012277;28;20229;-61
2022/10/25 08:49:46;;;;;;;3.47;1.30;;;17.20;99.90;;;-141.84;61.82;19232.63;5012247;28;20678;-61
2022/10/25 08:52:26;;;;;;;3.30;1.40;;;17.00;99.90;;;-141.84;62.86;19171.66;5012331;28;20253;-61
2022/10/25 08:54:58;;;;;;;6.10;1.40;;;16.60;99.90;;;-141.84;64.32;19126.97;5012310;28;20241;-61
2022/10/25 08:57:39;;;;;;;5.72;2.00;;;16.50;99.90;;;-141.84;64.25;19192.00;5011839;28;20681;-60
2022/10/25 09:00:16;;;;;;;2.85;1.50;;;16.40;99.90;;;-141.84;64.35;19120.88;5011959;28;20341;-61
2022/10/25 09:02:52;;;;;;;4.03;1.70;;;16.30;99.90;;;-141.84;63.68;19157.44;5012211;28;20222;-61
2022/10/25 09:05:37;;;;;;;2.88;1.52;;;16.40;99.90;;;-141.84;62.78;19248.88;5012071;28;20233;-61
2022/10/25 09:08:45;;;;;;;2.65;1.40;;;16.50;99.90;;;-141.84;62.99;19285.47;5011956;28;20219;-61
2022/10/25 09:11:35;;;;;;;5.45;1.80;;;16.60;99.90;;;-141.84;62.54;19299.69;5011921;28;20226;-60
2022/10/25 09:14:12;;;;;;;6.20;1.98;;;16.70;99.90;;;-141.84;62.67;19261.06;5011146;28;20231;-60
2022/10/25 09:16:49;;;;;;;4.07;2.08;;;16.70;99.90;;;-141.84;62.47;19301.72;5011947;28;20713;-60
2022/10/25 09:19:27;;;;;;;4.30;1.70;;;16.70;99.90;;;-141.84;62.65;19285.47;5012142;28;20253;-61
2022/10/25 09:22:01;;;;;;;3.70;2.03;;;16.70;99.90;;;-141.84;61.84;19348.47;5012106;28;20226;-60
2022/10/25 09:24:35;;;;;;;7.45;2.25;;;16.70;99.90;;;-141.84;62.78;19342.34;5011519;28;20225;-60
2022/10/25 09:27:08;;;;;;;4.07;1.80;;;16.80;99.90;;;-141.84;62.46;19340.31;5011881;28;20222;-59
2022/10/25 09:29:41;;;;;;;3.53;2.00;;;16.80;99.90;;;-141.84;62.32;19372.84;5011663;28;20223;-60
2022/10/25 09:32:19;;;;;;;3.67;1.70;;;16.70;99.90;;;-141.84;62.51;19322.03;5011810;28;20678;-62
2022/10/25 09:34:48;;;;;;;8.02;2.58;;;16.70;99.90;;;-141.84;63.06;19326.09;5011668;28;20280;-60
2022/10/25 09:37:25;;;;;;;4.13;1.60;;;16.70;99.90;;;-141.84;62.44;19336.25;5011836;28;20226;-60
2022/10/25 09:40:01;;;;;;;3.72;2.03;;;16.70;99.90;;;-141.84;62.73;19350.50;5011479;28;20284;-61
2022/10/25 09:42:37;;;;;;;1.92;1.60;;;16.60;99.90;;;-141.84;62.65;19358.63;5011363;28;20226;-60
2022/10/25 09:45:18;;;;;;;3.83;1.60;;;16.70;99.90;;;-141.84;62.92;19364.72;5011630;28;20309;-61
2022/10/25 09:47:54;;;;;;;4.38;1.65;;;16.70;99.90;;;-141.84;63.43;19340.31;5011393;28;20219;-61
2022/10/25 09:50:29;;;;;;;4.10;2.22;;;16.60;99.90;;;-141.84;63.22;19340.31;5011733;28;20222;-61
2022/10/25 09:53:12;;;;;;;2.97;1.50;;;16.60;99.90;;;-141.84;63.62;19344.41;5011343;28;20218;-61
2022/10/25 09:55:51;;;;;;;4.05;1.70;;;16.50;99.90;;;-141.84;62.71;19387.06;5011808;28;20223;-61
2022/10/25 09:58:24;;;;;;;4.85;1.73;;;16.70;99.90;;;-141.84;61.20;19446.00;5011199;28;20690;-60
2022/10/25 10:00:55;;;;;;;4.53;1.88;;;17.00;99.90;;;-141.84;61.15;19545.56;5011547;28;20600;-61
2022/10/25 10:03:30;;;;;;;2.35;1.60;;;17.10;99.90;;;-141.84;60.66;19478.50;5011519;28;20226;-61
2022/10/25 10:06:02;;;;;;;2.92;1.60;;;17.20;99.90;;;-141.84;61.36;19519.16;5011581;28;20222;-61
2022/10/25 10:08:35;;;;;;;4.72;2.75;;;17.10;99.90;;;-141.84;62.23;19462.25;5011156;28;20246;-61
2022/10/25 10:11:05;;;;;;;4.47;2.00;;;17.10;99.90;;;-141.84;62.40;19486.66;5011408;28;20244;-61
2022/10/25 10:13:42;;;;;;;3.88;2.10;;;17.00;99.90;;;-141.84;62.95;19439.91;5011492;28;20222;-61
2022/10/25 10:16:21;;;;;;;4.15;1.60;;;16.80;99.90;;;-141.84;63.59;19393.16;5011364;28;20210;-60
2022/10/25 10:18:50;;;;;;;3.80;1.55;;;16.60;99.90;;;-141.84;62.93;19419.59;5011327;28;20215;-61
2022/10/25 10:21:21;;;;;;;3.75;1.50;;;16.70;99.90;;;-141.84;63.24;19413.47;5011309;28;20230;-61
2022/10/25 10:23:54;;;;;;;2.85;1.35;;;16.60;99.90;;;-141.84;62.70;19417.56;5011302;28;20231;-61